Weather observations for the past three days for
Norman / Max Westheimer
Metric (Imperial)
Date Time (cdt) Wind (kph) Vis. (km) Weather Sky Cond. Temperature (ºC) Relative Humidity Wind Chill (°C) Heat Index (°C) Pressure Precipitation (cm)
Air Dwpt 6 hour altimeter (cm) sea level (mb) 1 hr 3 hr 6 hr
Max. Min.
05 11:45 Calm 16.09 Fair CLR 34 19 41% 36 76.12 0.0
05 09:45 S 13 16.09 Fair CLR 30 19 52% 31 76.12 0.0
05 07:45 S 9 16.09 Fair CLR 36 20 39% 39 76.1 0.0
05 07:35 S 11 16.09 Fair CLR 24.6 19.6 74% 25 76.1 0.0
05 07:15 S 9 16.09 Fair CLR 24.4 19.5 74% 25 76.05 0.0
05 06:55 S 9 16.09 Fair CLR 24.2 19.4 29.6 24.2 75% 25 76.05 0.0
05 06:35 S 9 16.09 Fair CLR 24.4 19.5 74% 25 76.05 0.0
05 06:15 S 9 16.09 Fair CLR 24.8 19.4 72% 26 76.05 0.0
05 05:55 S 7 16.09 Fair CLR 24.9 19.4 72% 26 76.02 0.0
05 05:35 S 9 16.09 Fair CLR 25.4 19.4 69% 26 76.02 0.0
05 05:15 S 9 16.09 Fair CLR 25.3 19.4 70% 26 76.02 0.0
05 04:55 S 9 16.09 Fair CLR 25.7 19.3 68% 27 76.02 0.0
05 04:35 S 7 16.09 Fair CLR 26.4 19.4 65% 28 76.02 0.0
05 04:15 S 11 16.09 Fair CLR 26.5 19.4 65% 28 76.02 0.0
05 03:55 S 13 16.09 Fair CLR 26.7 19.4 64% 28 76 0.0
05 03:35 S 15 16.09 Fair CLR 27 19.4 63% 28 76 0.0
05 03:15 S 15 16.09 Fair CLR 27.1 19.4 63% 28 76 0.0
05 02:55 S 13 16.09 Fair CLR 27.2 19.3 62% 29 76.02 0.0
05 02:35 S 13 16.09 Fair CLR 27.6 19.3 61% 29 76 0.0
05 02:15 S 13 16.09 Fair CLR 28 19.2 59% 29 76 0.0
05 01:55 S 15 16.09 Fair CLR 28.3 19.1 57% 30 76.02 0.0
05 01:35 S 15 16.09 Fair CLR 28.6 19 56% 30 76.02 0.0
05 01:15 S 15 16.09 Fair CLR 29.3 18.9 54% 31 76.02 0.0
05 00:55 SE 19 16.09 Fair CLR 29.5 18.8 35.8 29.4 53% 31 76.02 0.0
05 00:35 SE 17 16.09 Fair CLR 29.7 18.8 52% 31 76 0.0
05 00:15 S 17 16.09 Fair CLR 30 18.7 51% 31 76.02 0.0
04 23:55 SE 17 16.09 Fair CLR 30.4 18.6 49% 32 76.02 0.0
04 23:35 SE 22 16.09 Fair CLR 30.9 18.6 48% 32 76.02 0.0
04 23:15 SE 19 16.09 Fair CLR 31 18.6 48% 32 76.02 0.0
04 22:55 SE 20 16.09 Fair CLR 31.4 18.6 47% 33 76.02 0.0
04 22:35 SE 20 16.09 Fair CLR 31.6 18.7 46% 33 76 0.0
04 22:15 SE 20 16.09 Fair CLR 31.8 18.7 46% 33 75.97 0.0
04 21:55 SE 20 16.09 Fair CLR 32.4 18.7 44% 34 75.97 0.0
04 20:45 SE 17 16.09 Fair CLR 33 18 41% 34 75.9 0.0
04 19:45 SE 20 16.09 Fair CLR 34 18 39% 35 75.84 0.0
04 17:45 SE 26 16.09 Fair CLR 37 19 35% 39 75.82 0.0
04 15:45 SE 20 G 31 16.09 Fair CLR 38 19 33% 40 75.87 0.0
04 14:45 SE 20 16.09 Fair CLR 37 19 35% 39 75.92 0.0
04 13:45 SE 37 16.09 Fair and Breezy CLR 36 18 34% 37 75.95 0.0
04 12:45 S 28 16.09 Fair CLR 35 19 39% 37 76.02 0.0
04 11:45 SE 33 16.09 Fair and Breezy CLR 33 19 44% 35 76.05 0.0
04 10:45 SE 22 16.09 Fair CLR 31 21 55% 34 76.07 0.0
04 09:45 SE 22 16.09 Fair CLR 28 21 66% 30 76.07 0.0
04 08:45 SE 19 G 28 16.09 Fair CLR 26 21 74% 27 76.05 0.0
04 07:45 SE 17 16.09 Fair CLR 24 20 78% 24 76.02 0.0
04 07:35 SE 15 16.09 Fair CLR 24.1 20.2 79% 25 76 0.0
04 07:15 SE 17 16.09 Fair CLR 24 20.1 79% 24 76 0.0
04 06:55 SE 15 16.09 Partly Cloudy SCT055 24 20.1 26.5 24 79% 24 76 0.0
04 06:45 SE 17 16.09 Mostly Cloudy BKN055 24 20 78% 24 76 0.0
04 06:35 SE 17 16.09 Mostly Cloudy BKN055 24.3 20.1 77% 25 76 0.0
04 06:15 SE 15 16.09 Partly Cloudy SCT055 24.4 20.1 77% 25 75.97 0.0
04 05:35 S 15 16.09 Mostly Cloudy BKN055 25 20.3 75% 26 76 0.0
04 05:15 SE 17 16.09 Mostly Cloudy BKN055 25 20.3 75% 26 75.97 0.0
04 04:55 SE 15 16.09 Partly Cloudy SCT055 24.8 20.3 76% 26 75.97 0.0
04 04:35 S 15 16.09 Fair CLR 24.9 20.4 76% 26 75.97 0.0
04 04:15 S 17 16.09 Fair CLR 24.9 20.5 77% 26 75.95 0.0
04 03:55 SE 15 16.09 Fair CLR 25.1 20.6 76% 26 75.97 0.0
04 03:35 SE 15 16.09 Fair CLR 25.1 20.7 77% 26 75.95 0.0
04 03:15 S 13 16.09 Fair CLR 25.4 20.7 75% 27 75.95 0.0
04 02:55 S 15 16.09 Fair CLR 25.6 20.8 75% 27 75.95 0.0
04 02:35 S 17 16.09 Fair CLR 25.6 21 76% 27 75.95 0.0
04 02:15 S 17 16.09 Fair CLR 25.9 21.1 75% 27 75.97 0.0
04 01:55 S 17 16.09 Fair CLR 26 21.2 75% 27 75.97 0.0
04 01:35 S 15 16.09 Fair CLR 26.1 21.2 74% 28 75.97 0.0
04 01:15 SE 22 16.09 Fair CLR 26.3 21.2 74% 28 75.97 0.0
04 00:55 SE 20 16.09 Fair CLR 26.5 21.2 32.8 26.4 73% 28 75.97 0.0
04 00:35 S 15 16.09 Fair CLR 26.6 21.2 72% 28 75.97 0.0
04 00:15 SE 19 16.09 Fair CLR 26.9 21.2 71% 29 75.95 0.0
03 23:55 SE 19 16.09 Fair CLR 27.2 21.2 70% 29 75.97 0.0
03 23:35 SE 17 G 28 16.09 Fair CLR 27.5 21.1 68% 30 75.97 0.0
03 23:15 SE 15 16.09 Fair CLR 27.8 21 67% 30 75.97 0.0
03 22:55 SE 17 16.09 Fair CLR 28.1 21 65% 30 75.97 0.0
03 22:35 SE 24 16.09 Fair CLR 28.4 20.9 64% 31 75.97 0.0
03 22:15 SE 19 G 31 16.09 Fair CLR 28.6 20.8 63% 31 75.97 0.0
03 21:55 SE 26 16.09 Fair CLR 28.9 20.8 62% 31 75.97 0.0
03 20:45 SE 17 G 28 16.09 Fair CLR 30 21 59% 33 75.9 0.0
03 19:45 SE 26 16.09 Fair CLR 31 21 55% 34 75.84 0.0
03 18:45 E 26 G 37 16.09 Fair CLR 33 21 49% 36 75.82 0.0
03 17:45 E 24 G 33 16.09 Fair CLR 34 20 44% 36 75.79 0.0
03 16:45 SE 22 G 31 16.09 Fair CLR 34 20 44% 36 75.82 0.0
03 15:45 SE 28 G 33 16.09 Fair CLR 34 21 47% 37 75.87 0.0
03 14:45 SE 19 G 31 16.09 Fair CLR 33 21 49% 36 75.9 0.0
03 13:45 SE 19 G 33 16.09 Fair CLR 32 21 52% 35 75.97 0.0
03 12:45 E 31 16.09 Fair CLR 32 21 52% 35 76.02 0.0
03 11:45 SE 19 16.09 Fair CLR 31 21 55% 34 76.05 0.0
03 10:45 SE 13 16.09 Fair CLR 29 21 62% 31 76.07 0.0
03 09:45 SE 13 16.09 Partly Cloudy SCT015 27 21 70% 29 76.1 0.0
03 08:45 SE 31 16.09 Fair CLR 26 21 74% 27 76.12 0.0
03 07:45 SE 11 16.09 Fair CLR 24 21 83% 24 76.1 0.0
03 07:35 SE 13 16.09 Fair CLR 24 20.4 80% 24 76.07 0.0
03 07:15 SE 13 16.09 Fair CLR 24 20.3 80% 24 76.07 0.0
03 06:55 SE 15 16.09 Fair CLR 24.2 20.1 28.9 24.2 78% 25 76.05 0.0
03 06:45 SE 19 16.09 Fair CLR 24 20 78% 24 76.05 0.0
03 06:35 SE 19 16.09 Fair CLR 24.5 20.1 77% 25 76.05 0.0
03 06:15 SE 22 16.09 Fair CLR 24.9 20.1 75% 26 76.05 0.0
03 05:55 SE 17 16.09 Fair CLR 25 20 74% 26 76.02 0.0
03 05:35 SE 17 16.09 Fair CLR 25.1 20 73% 26 76.02 0.0
03 05:15 SE 20 16.09 Fair CLR 25.5 20.1 72% 27 76.02 0.0
03 04:55 SE 20 16.09 Fair CLR 25.8 20.1 71% 27 76.02 0.0
03 04:35 SE 20 16.09 Fair CLR 25.9 20 70% 27 76.02 0.0
03 03:55 SE 17 16.09 Fair CLR 26.2 19.9 68% 28 76.02 0.0
03 03:35 S 17 16.09 Fair CLR 26.5 19.9 67% 28 76.02 0.0
03 03:15 SE 20 16.09 Fair CLR 27.1 19.9 65% 29 76 0.0
03 02:55 SE 20 16.09 Fair CLR 27.3 19.8 64% 29 76 0.0
03 02:35 SE 17 16.09 Fair CLR 27.5 19.8 63% 29 76.02 0.0
03 02:15 SE 17 16.09 Fair CLR 27.7 19.7 62% 29 76.02 0.0
03 01:55 SE 19 16.09 Fair CLR 28 19.6 60% 29 76.02 0.0
03 01:35 SE 20 16.09 Fair CLR 28.4 19.6 59% 30 76.02 0.0
03 01:15 SE 19 16.09 Fair CLR 28.6 19.5 58% 30 76.02 0.0
03 00:55 SE 24 16.09 Fair CLR 28.9 19.3 36 28.9 56% 30 76.02 0.0
03 00:35 SE 24 16.09 Fair CLR 29.3 19.1 54% 31 76.02 0.0
03 00:15 SE 24 G 33 16.09 Fair CLR 29.6 18.8 52% 31 76.02 0.0
02 23:55 SE 26 G 39 16.09 Fair CLR 30 18.7 51% 31 76.02 0.0
02 23:35 SE 22 16.09 Fair CLR 30.8 18.2 47% 32 76.02 0.0
02 23:15 SE 19 16.09 Fair CLR 31.2 18.1 46% 32 76 0.0
02 22:55 SE 22 G 31 16.09 Fair CLR 31.5 18 45% 32 76 0.0
02 22:35 SE 22 16.09 Fair CLR 31.8 17.9 43% 33 76 0.0
02 22:15 SE 22 16.09 Fair CLR 32 17.8 43% 33 76 0.0
02 21:55 SE 22 16.09 Fair CLR 32.2 17.6 42% 33 76 0.0
02 20:45 E 17 16.09 Fair CLR 33 17 38% 33 75.95 0.0
02 19:45 SE 20 16.09 Fair CLR 35 17 34% 36 75.9 0.0
02 18:45 SE 19 16.09 Fair CLR 36 17 32% 37 75.9 0.0
02 17:45 SE 19 16.09 Fair CLR 37 17 31% 38 75.9 0.0
02 16:45 S 13 16.09 Fair CLR 37 17 31% 38 75.92 0.0
02 15:45 S 13 G 28 16.09 Fair CLR 37 17 31% 38 76 0.0
02 14:45 SE 6 16.09 Fair CLR 37 18 33% 39 76.07 0.0
02 13:45 E 17 G 30 16.09 Fair CLR 36 19 37% 38 76.12 0.0
Date Time (cdt) Wind (kph) Vis. (km) Weather Sky Cond. Air Dwpt Max. Min. Relative Humidity Wind Chill (°C) Heat Index (°C) altimeter (cm) sea level (mb) 1 hr 3 hr 6 hr
6 hour
Temperature (ºC) Pressure Precipitation (cm)